createdAt,value
2023-08-11T00:02:09.061Z,2.80
2023-08-11T00:04:36.346Z,2.33
2023-08-11T00:07:04.149Z,2.65
2023-08-11T00:09:31.601Z,2.42
2023-08-11T00:11:58.804Z,2.50
2023-08-11T00:14:26.146Z,2.40
2023-08-11T00:16:53.339Z,2.53
2023-08-11T00:19:20.646Z,2.50
2023-08-11T00:21:48.085Z,2.90
2023-08-11T00:24:15.289Z,2.42
2023-08-11T00:26:42.481Z,2.40
2023-08-11T00:29:09.739Z,2.60
2023-08-11T00:31:37.170Z,2.60
2023-08-11T00:34:04.609Z,2.42
2023-08-11T00:36:31.993Z,2.50
2023-08-11T00:39:01.534Z,2.53
2023-08-11T00:41:29.111Z,2.38
2023-08-11T00:43:56.459Z,2.75
2023-08-11T00:46:24.666Z,2.40
2023-08-11T00:48:52.720Z,2.40
2023-08-11T00:51:20.885Z,2.80
2023-08-11T00:53:48.130Z,3.05
2023-08-11T00:56:15.841Z,2.50
2023-08-11T00:58:44.534Z,2.70
2023-08-11T01:01:11.842Z,2.58
2023-08-11T01:03:39.249Z,2.65
2023-08-11T01:06:15.252Z,2.60
2023-08-11T01:08:50.125Z,2.40
2023-08-11T01:11:21.362Z,2.50
2023-08-11T01:13:55.425Z,2.97
2023-08-11T01:16:24.973Z,2.42
2023-08-11T01:18:52.397Z,2.67
2023-08-11T01:21:20.744Z,2.53
2023-08-11T01:23:48.161Z,2.47
2023-08-11T01:26:15.490Z,2.78
2023-08-11T01:28:43.301Z,2.55
2023-08-11T01:31:12.141Z,2.40
2023-08-11T01:33:39.547Z,2.55
2023-08-11T01:36:07.020Z,2.35
2023-08-11T01:38:34.262Z,2.53
2023-08-11T01:41:01.842Z,2.40
2023-08-11T01:43:31.000Z,2.72
2023-08-11T01:45:59.597Z,2.53
2023-08-11T01:48:28.197Z,2.85
2023-08-11T01:50:55.564Z,3.00
2023-08-11T01:53:23.005Z,2.70
2023-08-11T01:55:51.556Z,2.40
2023-08-11T01:58:18.772Z,2.65
2023-08-11T02:00:46.018Z,2.75
2023-08-11T02:03:14.148Z,2.70
2023-08-11T02:05:41.531Z,2.33
2023-08-11T02:08:09.032Z,2.50
2023-08-11T02:10:36.300Z,2.85
2023-08-11T02:13:03.693Z,2.25
2023-08-11T02:15:30.935Z,2.55
2023-08-11T02:17:58.264Z,2.53
2023-08-11T02:20:25.774Z,2.42
2023-08-11T02:22:53.738Z,2.33
2023-08-11T02:25:21.480Z,2.67
2023-08-11T02:27:48.813Z,2.33
2023-08-11T02:30:16.239Z,2.75
2023-08-11T02:32:46.749Z,2.22
2023-08-11T02:35:14.354Z,2.88
2023-08-11T02:37:42.377Z,2.45
2023-08-11T02:40:10.362Z,2.75
2023-08-11T02:42:45.546Z,2.70
2023-08-11T02:45:12.913Z,2.20
2023-08-11T02:47:43.819Z,2.30
2023-08-11T02:50:11.522Z,2.50
2023-08-11T02:52:39.188Z,2.33
2023-08-11T02:55:07.266Z,2.70
2023-08-11T02:57:34.845Z,2.63
2023-08-11T03:00:02.322Z,2.72
2023-08-11T03:02:29.629Z,2.88
2023-08-11T03:04:56.886Z,2.20
2023-08-11T03:07:24.203Z,2.35
2023-08-11T03:09:51.550Z,2.20
2023-08-11T03:12:18.772Z,2.28
2023-08-11T03:14:46.026Z,2.67
2023-08-11T03:17:14.782Z,2.40
2023-08-11T03:19:42.244Z,2.67
2023-08-11T03:22:09.715Z,2.60
2023-08-11T03:24:37.248Z,2.60
2023-08-11T03:27:07.778Z,2.40
2023-08-11T03:29:34.967Z,2.50
2023-08-11T03:32:02.316Z,2.42
2023-08-11T03:34:29.580Z,2.63
2023-08-11T03:36:56.860Z,2.30
2023-08-11T03:39:24.141Z,2.35
2023-08-11T03:41:53.234Z,2.40
2023-08-11T03:44:20.476Z,2.40
2023-08-11T03:46:47.791Z,2.20
2023-08-11T03:49:15.126Z,2.50
2023-08-11T03:51:42.566Z,2.45
2023-08-11T03:54:09.880Z,2.55
2023-08-11T03:56:37.174Z,2.20
2023-08-11T03:59:04.427Z,2.72
2023-08-11T04:01:31.683Z,2.38
2023-08-11T04:03:58.959Z,2.50
2023-08-11T04:06:33.252Z,2.55
2023-08-11T04:09:03.626Z,2.30
2023-08-11T04:11:34.310Z,2.42
2023-08-11T04:14:01.506Z,2.55
2023-08-11T04:16:29.391Z,2.70
2023-08-11T04:18:56.690Z,2.70
2023-08-11T04:21:24.456Z,2.25
2023-08-11T04:23:51.759Z,2.20
2023-08-11T04:26:19.111Z,2.55
2023-08-11T04:28:47.065Z,2.80
2023-08-11T04:31:14.596Z,2.50
2023-08-11T04:33:42.707Z,2.50
2023-08-11T04:36:10.056Z,2.42
2023-08-11T04:38:37.354Z,2.08
2023-08-11T04:41:04.780Z,2.20
2023-08-11T04:43:32.005Z,2.42
2023-08-11T04:45:59.458Z,2.50
2023-08-11T04:48:27.146Z,2.22
2023-08-11T04:50:54.813Z,3.10
2023-08-11T04:53:22.492Z,2.72
2023-08-11T04:55:50.204Z,2.53
2023-08-11T04:58:17.469Z,2.75
2023-08-11T05:00:44.728Z,2.50
2023-08-11T05:03:12.222Z,2.40
2023-08-11T05:05:39.536Z,2.58
2023-08-11T05:08:06.979Z,2.70
2023-08-11T05:10:34.390Z,2.70
2023-08-11T05:13:01.747Z,2.60
2023-08-11T05:15:28.908Z,2.50
2023-08-11T05:17:56.230Z,2.25
2023-08-11T05:20:24.184Z,2.28
2023-08-11T05:22:53.419Z,2.30
2023-08-11T05:25:20.813Z,2.50
2023-08-11T05:27:48.709Z,3.05
2023-08-11T05:30:15.947Z,2.40
2023-08-11T05:32:43.854Z,2.67
2023-08-11T05:35:13.669Z,2.70
2023-08-11T05:37:42.497Z,2.42
2023-08-11T05:40:10.646Z,2.85
2023-08-11T05:42:38.190Z,2.60
2023-08-11T05:45:05.635Z,2.33
2023-08-11T05:47:32.880Z,2.75
2023-08-11T05:50:00.150Z,2.60
2023-08-11T05:52:27.380Z,2.70
2023-08-11T05:54:54.624Z,2.50
2023-08-11T05:57:21.946Z,2.63
2023-08-11T05:59:49.200Z,2.58
2023-08-11T06:02:16.521Z,2.50
2023-08-11T06:04:45.831Z,2.60
2023-08-11T06:07:13.703Z,2.42
2023-08-11T06:09:40.916Z,2.50
2023-08-11T06:12:08.219Z,2.70
2023-08-11T06:14:35.476Z,2.80
2023-08-11T06:17:02.692Z,2.40
2023-08-11T06:19:30.016Z,2.70
2023-08-11T06:21:57.382Z,2.40
2023-08-11T06:24:24.698Z,2.35
2023-08-11T06:26:53.009Z,2.60
2023-08-11T06:29:20.385Z,2.92
2023-08-11T06:31:47.774Z,2.58
2023-08-11T06:34:18.427Z,2.63
2023-08-11T06:36:49.299Z,3.05
2023-08-11T06:39:16.793Z,2.78
2023-08-11T06:41:44.123Z,3.00
2023-08-11T06:44:11.427Z,3.03
2023-08-11T06:46:38.794Z,2.88
2023-08-11T06:49:06.058Z,3.15
2023-08-11T06:51:33.447Z,2.70
2023-08-11T06:54:00.677Z,2.70
2023-08-11T06:56:27.958Z,2.67
2023-08-11T06:58:55.241Z,2.78
2023-08-11T07:01:22.560Z,2.90
2023-08-11T07:03:49.887Z,3.00
2023-08-11T07:06:17.238Z,2.72
2023-08-11T07:08:44.502Z,3.42
2023-08-11T07:11:11.796Z,3.20
2023-08-11T07:13:39.299Z,3.15
2023-08-11T07:16:06.543Z,3.95
2023-08-11T07:18:33.829Z,2.95
2023-08-11T07:21:01.288Z,3.72
2023-08-11T07:23:28.563Z,3.80
2023-08-11T07:25:55.876Z,5.65
2023-08-11T07:28:23.312Z,7.45
2023-08-11T07:30:50.606Z,11.73
2023-08-11T07:33:17.869Z,15.88
2023-08-11T07:35:45.437Z,17.50
2023-08-11T07:38:12.909Z,15.68
2023-08-11T07:40:40.554Z,13.68
2023-08-11T07:43:07.996Z,14.18
2023-08-11T07:45:35.332Z,13.50
2023-08-11T07:48:02.820Z,13.70
2023-08-11T07:50:30.230Z,13.20
2023-08-11T07:52:57.580Z,13.52
2023-08-11T07:55:25.005Z,12.27
2023-08-11T07:57:52.329Z,12.63
2023-08-11T08:00:22.223Z,11.23
2023-08-11T08:02:50.121Z,11.95
2023-08-11T08:05:17.508Z,14.65
2023-08-11T08:07:44.769Z,13.88
2023-08-11T08:10:12.781Z,13.23
2023-08-11T08:12:40.679Z,13.18
2023-08-11T08:15:09.202Z,12.20
2023-08-11T08:17:36.516Z,12.65
2023-08-11T08:20:06.070Z,12.60
2023-08-11T08:22:36.518Z,13.98
2023-08-11T08:25:07.805Z,13.88
2023-08-11T08:27:36.011Z,14.23
2023-08-11T08:30:03.273Z,14.00
2023-08-11T08:32:30.601Z,12.27
2023-08-11T08:34:57.856Z,13.48
2023-08-11T08:37:25.985Z,14.18
2023-08-11T08:39:53.836Z,13.00
2023-08-11T08:42:22.491Z,11.70
2023-08-11T08:44:50.692Z,10.93
2023-08-11T08:47:22.425Z,11.57
2023-08-11T08:49:50.729Z,10.25
2023-08-11T08:52:18.218Z,9.32
2023-08-11T08:54:46.168Z,7.93
2023-08-11T08:57:15.954Z,7.60
2023-08-11T08:59:44.722Z,6.68
2023-08-11T09:02:12.535Z,6.22
2023-08-11T09:04:41.446Z,5.43
2023-08-11T09:07:09.068Z,5.70
2023-08-11T09:09:36.529Z,4.63
2023-08-11T09:12:03.945Z,5.32
2023-08-11T09:14:31.318Z,4.45
2023-08-11T09:17:03.769Z,4.25
2023-08-11T09:19:31.095Z,4.55
2023-08-11T09:21:58.583Z,4.18
2023-08-11T09:24:25.849Z,3.78
2023-08-11T09:26:53.137Z,4.10
2023-08-11T09:29:21.077Z,3.40
2023-08-11T09:31:55.152Z,3.40
2023-08-11T09:34:22.562Z,3.45
2023-08-11T09:36:50.398Z,3.33
2023-08-11T09:39:17.893Z,3.10
2023-08-11T09:41:46.298Z,3.03
2023-08-11T09:44:15.949Z,2.97
2023-08-11T09:46:44.002Z,3.40
2023-08-11T09:49:11.414Z,2.80
2023-08-11T09:51:38.919Z,3.35
2023-08-11T09:54:09.046Z,2.85
2023-08-11T09:56:37.236Z,2.78
2023-08-11T09:59:05.780Z,3.00
2023-08-11T10:01:35.732Z,3.10
2023-08-11T10:04:04.845Z,3.15
2023-08-11T10:06:32.940Z,3.00
2023-08-11T10:09:02.839Z,2.83
2023-08-11T10:11:30.573Z,2.72
2023-08-11T10:13:58.216Z,2.90
2023-08-11T10:16:28.897Z,3.65
2023-08-11T10:18:59.996Z,3.38
2023-08-11T10:21:28.136Z,3.10
2023-08-11T10:23:56.444Z,3.58
2023-08-11T10:26:25.397Z,3.17
2023-08-11T10:28:53.682Z,3.03
2023-08-11T10:31:25.697Z,2.88
2023-08-11T10:33:54.325Z,3.33
2023-08-11T10:36:25.318Z,3.50
2023-08-11T10:39:05.991Z,4.35
2023-08-11T10:41:34.215Z,6.13
2023-08-11T10:44:01.757Z,6.38
2023-08-11T10:46:33.457Z,5.72
2023-08-11T10:49:01.780Z,5.18
2023-08-11T10:51:35.067Z,5.43
2023-08-11T10:54:03.723Z,5.05
2023-08-11T10:56:32.895Z,5.78
2023-08-11T10:59:07.041Z,5.65
2023-08-11T11:01:36.242Z,5.47
2023-08-11T11:04:07.414Z,4.68
2023-08-11T11:06:35.353Z,6.20
2023-08-11T11:09:04.037Z,9.88
2023-08-11T11:11:32.033Z,15.93
2023-08-11T11:13:59.568Z,13.50
2023-08-11T11:16:27.956Z,12.00
2023-08-11T11:18:55.670Z,10.90
2023-08-11T11:21:24.349Z,9.48
2023-08-11T11:23:52.301Z,9.52
2023-08-11T11:26:29.445Z,8.90
2023-08-11T11:28:58.326Z,7.70
2023-08-11T11:31:26.576Z,7.68
2023-08-11T11:33:54.254Z,8.88
2023-08-11T11:36:22.281Z,7.75
2023-08-11T11:38:49.898Z,7.43
2023-08-11T11:41:18.390Z,7.15
2023-08-11T11:43:46.851Z,6.55
2023-08-11T11:46:17.146Z,6.20
2023-08-11T11:48:45.662Z,5.55
2023-08-11T11:51:13.964Z,5.47
2023-08-11T11:53:41.574Z,5.57
2023-08-11T11:56:09.129Z,6.80
2023-08-11T11:58:39.989Z,5.85
2023-08-11T12:01:11.796Z,5.95
2023-08-11T12:03:39.113Z,6.28
2023-08-11T12:06:06.852Z,6.55
2023-08-11T12:08:35.873Z,6.80
2023-08-11T12:11:06.367Z,6.90
2023-08-11T12:13:33.760Z,6.80
2023-08-11T12:16:01.229Z,8.20
2023-08-11T12:18:30.190Z,8.13
2023-08-11T12:20:59.897Z,8.35
2023-08-11T12:23:28.245Z,8.00
2023-08-11T12:25:55.959Z,8.30
2023-08-11T12:28:23.550Z,9.48
2023-08-11T12:30:50.926Z,8.30
2023-08-11T12:33:18.288Z,7.93
2023-08-11T12:35:46.258Z,8.95
2023-08-11T12:38:13.965Z,8.65
2023-08-11T12:40:42.501Z,9.55
2023-08-11T12:43:13.499Z,9.90
2023-08-11T12:45:41.535Z,10.18
2023-08-11T12:48:09.300Z,10.80
2023-08-11T12:50:39.976Z,10.23
2023-08-11T12:53:07.185Z,8.52
2023-08-11T12:55:34.948Z,9.18
2023-08-11T12:58:03.451Z,8.35
2023-08-11T13:00:31.205Z,7.93
2023-08-11T13:02:58.880Z,7.03
2023-08-11T13:05:27.476Z,7.50
2023-08-11T13:07:54.899Z,23.33
2023-08-11T13:10:22.527Z,39.80
2023-08-11T13:12:50.503Z,33.90
2023-08-11T13:15:18.124Z,18.63
2023-08-11T13:17:46.636Z,16.58
2023-08-11T13:20:14.405Z,14.02
2023-08-11T13:22:41.975Z,14.10
2023-08-11T13:25:09.881Z,12.90
2023-08-11T13:27:38.175Z,11.07
2023-08-11T13:30:08.493Z,10.73
2023-08-11T13:32:35.863Z,9.98
2023-08-11T13:35:03.273Z,9.30
2023-08-11T13:37:31.543Z,8.52
2023-08-11T13:39:59.413Z,7.68
2023-08-11T13:42:27.215Z,8.02
2023-08-11T13:44:55.227Z,7.38
2023-08-11T13:47:23.183Z,8.00
2023-08-11T13:49:51.074Z,7.15
2023-08-11T13:52:19.227Z,6.85
2023-08-11T13:55:03.090Z,6.88
2023-08-11T13:57:30.744Z,6.25
2023-08-11T13:59:59.682Z,5.75
2023-08-11T14:02:28.736Z,6.63
2023-08-11T14:04:56.728Z,5.70
2023-08-11T14:07:32.315Z,4.95
2023-08-11T14:10:01.894Z,5.85
2023-08-11T14:12:29.573Z,5.03
2023-08-11T14:14:56.944Z,5.72
2023-08-11T14:17:25.089Z,5.13
2023-08-11T14:19:53.696Z,5.25
2023-08-11T14:22:21.386Z,4.65
2023-08-11T14:24:49.509Z,5.13
2023-08-11T14:27:17.723Z,4.55
2023-08-11T14:29:46.205Z,4.35
2023-08-11T14:32:25.391Z,4.85
2023-08-11T14:34:54.465Z,4.07
2023-08-11T14:37:22.917Z,4.15
2023-08-11T14:39:50.624Z,4.38
2023-08-11T14:42:19.684Z,3.92
2023-08-11T14:44:46.969Z,3.35
2023-08-11T14:47:15.156Z,3.67
2023-08-11T14:49:43.946Z,3.50
2023-08-11T14:52:12.377Z,4.20
2023-08-11T14:54:40.735Z,3.53
2023-08-11T14:57:09.641Z,3.65
2023-08-11T14:59:37.568Z,3.75
2023-08-11T15:02:05.630Z,3.17
2023-08-11T15:04:33.021Z,3.25
2023-08-11T15:07:00.270Z,3.50
2023-08-11T15:09:28.129Z,3.55
2023-08-11T15:11:55.475Z,2.97
2023-08-11T15:14:22.799Z,3.20
2023-08-11T15:16:50.435Z,3.25
2023-08-11T15:19:17.882Z,2.97
2023-08-11T15:21:45.358Z,3.15
2023-08-11T15:24:12.583Z,3.25
2023-08-11T15:26:39.846Z,3.92
2023-08-11T15:29:07.316Z,3.53
2023-08-11T15:31:34.677Z,3.15
2023-08-11T15:34:01.919Z,3.35
2023-08-11T15:36:29.141Z,3.38
2023-08-11T15:38:56.842Z,3.25
2023-08-11T15:41:24.033Z,3.25
2023-08-11T15:43:52.240Z,2.90
2023-08-11T15:46:19.644Z,3.20
2023-08-11T15:48:47.044Z,2.90
2023-08-11T15:51:14.301Z,3.15
2023-08-11T15:53:41.499Z,3.72
2023-08-11T15:56:09.055Z,3.15
2023-08-11T15:58:38.485Z,3.25
2023-08-11T16:01:06.143Z,2.92
2023-08-11T16:03:35.756Z,3.75
2023-08-11T16:06:04.290Z,3.40
2023-08-11T16:08:31.674Z,3.28
2023-08-11T16:10:58.952Z,3.17
2023-08-11T16:13:29.072Z,3.83
2023-08-11T16:15:56.465Z,3.55
2023-08-11T16:18:23.766Z,3.58
2023-08-11T16:20:50.914Z,4.07
2023-08-11T16:23:18.339Z,3.97
2023-08-11T16:25:45.551Z,3.58
2023-08-11T16:28:15.966Z,3.70
2023-08-11T16:30:43.436Z,3.45
2023-08-11T16:33:11.189Z,3.40
2023-08-11T16:35:38.482Z,4.25
2023-08-11T16:38:05.748Z,3.53
2023-08-11T16:40:34.163Z,3.50
2023-08-11T16:43:02.368Z,4.10
2023-08-11T16:45:29.666Z,3.53
2023-08-11T16:47:57.101Z,3.40
2023-08-11T16:50:24.467Z,3.17
2023-08-11T16:52:54.432Z,3.28
2023-08-11T16:55:22.235Z,2.90
2023-08-11T16:57:49.486Z,6.85
2023-08-11T17:00:17.140Z,17.48
2023-08-11T17:02:44.710Z,23.80
2023-08-11T17:05:12.070Z,19.90
2023-08-11T17:07:39.350Z,18.65
2023-08-11T17:10:07.351Z,16.92
2023-08-11T17:12:34.946Z,15.48
2023-08-11T17:15:02.224Z,14.80
2023-08-11T17:17:29.538Z,14.18
2023-08-11T17:19:56.841Z,12.55
2023-08-11T17:22:24.123Z,13.80
2023-08-11T17:24:51.407Z,12.20
2023-08-11T17:27:19.836Z,11.38
2023-08-11T17:29:47.158Z,12.40
2023-08-11T17:32:14.425Z,16.50
2023-08-11T17:34:54.481Z,17.77
2023-08-11T17:37:24.853Z,15.82
2023-08-11T17:39:52.411Z,14.43
2023-08-11T17:42:19.574Z,13.95
2023-08-11T17:44:46.812Z,14.90
2023-08-11T17:47:14.046Z,13.00
2023-08-11T17:49:41.378Z,14.23
2023-08-11T17:52:08.914Z,13.50
2023-08-11T17:54:36.501Z,13.40
2023-08-11T17:57:03.739Z,12.43
2023-08-11T17:59:31.004Z,12.82
2023-08-11T18:01:58.257Z,12.32
2023-08-11T18:04:25.661Z,11.48
2023-08-11T18:06:54.189Z,10.98
2023-08-11T18:09:24.334Z,11.32
2023-08-11T18:11:51.621Z,9.88
2023-08-11T18:14:18.868Z,9.82
2023-08-11T18:16:46.235Z,8.68
2023-08-11T18:19:13.825Z,8.85
2023-08-11T18:21:41.159Z,8.18
2023-08-11T18:24:08.952Z,8.25
2023-08-11T18:26:36.414Z,7.13
2023-08-11T18:29:04.163Z,6.15
2023-08-11T18:31:31.602Z,8.23
2023-08-11T18:34:01.409Z,12.40
2023-08-11T18:36:28.924Z,16.65
2023-08-11T18:38:56.130Z,16.48
2023-08-11T18:41:23.444Z,17.38
2023-08-11T18:43:50.923Z,15.90
2023-08-11T18:46:18.220Z,15.02
2023-08-11T18:48:45.744Z,15.05
2023-08-11T18:51:13.049Z,14.05
2023-08-11T18:53:40.378Z,12.63
2023-08-11T18:56:07.616Z,12.10
2023-08-11T18:58:34.860Z,10.85
2023-08-11T19:01:02.144Z,11.20
2023-08-11T19:03:29.520Z,9.80
2023-08-11T19:05:59.475Z,8.68
2023-08-11T19:08:26.852Z,9.07
2023-08-11T19:10:54.143Z,8.05
2023-08-11T19:13:21.869Z,6.82
2023-08-11T19:15:49.859Z,7.75
2023-08-11T19:18:17.579Z,6.80
2023-08-11T19:20:47.167Z,6.88
2023-08-11T19:23:14.640Z,6.97
2023-08-11T19:25:42.225Z,6.80
2023-08-11T19:28:11.971Z,6.80
2023-08-11T19:30:39.431Z,5.95
2023-08-11T19:33:06.837Z,5.35
2023-08-11T19:35:34.413Z,5.65
2023-08-11T19:38:01.662Z,5.40
2023-08-11T19:40:28.894Z,5.40
2023-08-11T19:42:56.223Z,5.43
2023-08-11T19:45:23.540Z,4.97
2023-08-11T19:47:50.811Z,4.78
2023-08-11T19:50:18.119Z,4.82
2023-08-11T19:52:45.808Z,5.05
2023-08-11T19:55:13.058Z,4.60
2023-08-11T19:57:40.314Z,4.47
2023-08-11T20:00:07.847Z,4.50
2023-08-11T20:02:35.155Z,4.63
2023-08-11T20:05:02.971Z,5.05
2023-08-11T20:07:30.332Z,4.40
2023-08-11T20:09:57.707Z,4.18
2023-08-11T20:12:24.934Z,6.13
2023-08-11T20:14:52.160Z,9.70
2023-08-11T20:17:19.426Z,11.77
2023-08-11T20:19:46.779Z,13.52
2023-08-11T20:22:14.113Z,14.60
2023-08-11T20:24:41.511Z,14.30
2023-08-11T20:27:09.064Z,13.55
2023-08-11T20:29:36.492Z,13.38
2023-08-11T20:32:05.051Z,10.85
2023-08-11T20:34:33.101Z,10.93
2023-08-11T20:37:00.411Z,9.63
2023-08-11T20:39:29.871Z,8.65
2023-08-11T20:41:58.688Z,7.95
2023-08-11T20:44:26.155Z,6.80
2023-08-11T20:46:54.680Z,6.22
2023-08-11T20:49:22.102Z,6.28
2023-08-11T20:51:49.336Z,6.18
2023-08-11T20:54:16.618Z,5.70
2023-08-11T20:56:43.836Z,4.57
2023-08-11T20:59:11.320Z,4.32
2023-08-11T21:01:38.719Z,4.60
2023-08-11T21:04:06.065Z,4.50
2023-08-11T21:06:33.305Z,4.22
2023-08-11T21:09:00.580Z,4.35
2023-08-11T21:11:27.958Z,3.53
2023-08-11T21:14:00.007Z,3.65
2023-08-11T21:16:27.258Z,3.50
2023-08-11T21:18:55.018Z,3.40
2023-08-11T21:21:22.251Z,3.00
2023-08-11T21:23:49.456Z,3.30
2023-08-11T21:26:16.747Z,2.78
2023-08-11T21:28:44.171Z,3.20
2023-08-11T21:31:18.309Z,3.25
2023-08-11T21:33:46.338Z,2.85
2023-08-11T21:36:13.600Z,2.75
2023-08-11T21:38:40.877Z,2.75
2023-08-11T21:41:08.103Z,3.00
2023-08-11T21:43:35.348Z,2.80
2023-08-11T21:46:02.649Z,2.97
2023-08-11T21:48:29.922Z,2.85
2023-08-11T21:50:57.189Z,2.50
2023-08-11T21:53:24.508Z,2.70
2023-08-11T21:55:52.209Z,2.80
2023-08-11T21:58:19.523Z,2.72
2023-08-11T22:00:46.806Z,2.83
2023-08-11T22:03:14.238Z,2.88
2023-08-11T22:05:41.594Z,2.67
2023-08-11T22:08:09.088Z,2.40
2023-08-11T22:10:36.754Z,2.55
2023-08-11T22:13:04.066Z,2.63
2023-08-11T22:15:31.338Z,2.22
2023-08-11T22:17:58.582Z,2.72
2023-08-11T22:20:25.973Z,2.10
2023-08-11T22:22:53.296Z,2.42
2023-08-11T22:25:20.765Z,2.80
2023-08-11T22:27:49.346Z,2.70
2023-08-11T22:30:17.292Z,2.20
2023-08-11T22:32:44.576Z,2.30
2023-08-11T22:35:12.298Z,2.50
2023-08-11T22:37:39.522Z,2.47
2023-08-11T22:40:07.355Z,2.30
2023-08-11T22:42:34.588Z,2.30
2023-08-11T22:45:01.820Z,2.45
2023-08-11T22:47:29.214Z,2.60
2023-08-11T22:49:56.656Z,2.47
2023-08-11T22:52:24.026Z,2.45
2023-08-11T22:54:51.300Z,2.65
2023-08-11T22:57:19.241Z,2.20
2023-08-11T22:59:46.577Z,2.70
2023-08-11T23:02:13.835Z,2.50
2023-08-11T23:04:41.963Z,2.55
2023-08-11T23:07:09.551Z,2.50
2023-08-11T23:09:37.202Z,2.38
2023-08-11T23:12:05.566Z,2.53
2023-08-11T23:14:32.806Z,2.53
2023-08-11T23:17:00.102Z,2.40
2023-08-11T23:19:27.319Z,2.38
2023-08-11T23:21:54.556Z,2.85
2023-08-11T23:24:21.990Z,3.03
2023-08-11T23:26:49.346Z,2.90
2023-08-11T23:29:16.581Z,2.72
2023-08-11T23:31:43.929Z,2.38
2023-08-11T23:34:11.168Z,2.35
2023-08-11T23:36:38.386Z,2.53
2023-08-11T23:39:07.188Z,2.53
2023-08-11T23:41:34.490Z,2.30
2023-08-11T23:44:01.901Z,2.55
2023-08-11T23:46:29.147Z,2.80
2023-08-11T23:48:56.394Z,2.50
2023-08-11T23:51:24.037Z,2.65
2023-08-11T23:53:51.324Z,2.63
2023-08-11T23:56:18.814Z,2.60
2023-08-11T23:58:46.099Z,2.80
